Cinnaminson Township, New Jersey
Current Conditions -  °F | °C
As of 8:54 PM on Sunday 21 Dec 2014 (Local Time) from KPNE Reporting Station
Clear Clear  
Wind Chill: 32°   Ceiling: Unl
Heat Index: 32°   Visibility: 10mi
Dew Point: 21°   Wind: 0mph
Humidity: 64%   Direction: NA
Pressure: 30.35"   Gusts: NA
Location:  40.0002°N, 74.9938°W
Report Text: KPNE 220154Z AUTO 00000KT 10SM CLR 00/M06 A3035 RMK AO2 SLP278 T00001061 TSNO
Loading
Personal Weather Stations






























Interactive Weather Map New forecast layout! Learn more

10-Day Weather Forecast

Advertisements
Track Severe Weather on mobile